Center Hill Observed Data For Previous 48 Hours

Caption
Day and Hour Reservoir Elevation (behind dam)* Tailwater Elevation (below dam)* Average Hourly Discharge*
4/23/2017 1 AM CDT 634.96 488.16 8,380
4/23/2017 2 AM CDT 635.25 488.15 8,380
4/23/2017 3 AM CDT 635.56 488.06 7,820
4/23/2017 4 AM CDT 635.85 487.95 8,050
4/23/2017 5 AM CDT 636.13 487.83 8,260
4/23/2017 6 AM CDT 636.39 487.89 8,260
4/23/2017 7 AM CDT 636.70 487.80 8,220
4/23/2017 8 AM CDT 636.98 487.78 8,270
4/23/2017 9 AM CDT 637.25 487.75 8,240
4/23/2017 10 AM CDT 637.53 487.63 8,450
4/23/2017 11 AM CDT 637.81 487.61 8,280
4/23/2017 12 PM CDT 638.09 487.49 8,080
4/23/2017 1 PM CDT 638.37 487.47 8,240
4/23/2017 2 PM CDT 638.65 487.45 8,040
4/23/2017 3 PM CDT 638.93 487.33 8,280
4/23/2017 4 PM CDT 639.22 487.32 8,240
4/23/2017 5 PM CDT 639.50 487.30 8,340
4/23/2017 6 PM CDT 639.79 487.19 8,280
4/23/2017 7 PM CDT 640.08 487.18 8,240
4/23/2017 8 PM CDT 640.37 487.17 8,140
4/23/2017 9 PM CDT 640.66 487.07 8,140
4/23/2017 10 PM CDT 640.95 487.05 7,740
4/23/2017 11 PM CDT 641.24 487.04 7,940
4/24/2017 12 AM CDT 641.52 487.02 8,000
4/24/2017 1 AM CDT 641.80 487.00 7,840
4/24/2017 2 AM CDT 642.08 486.98 7,840
4/24/2017 3 AM CDT 642.34 486.94 7,900
4/24/2017 4 AM CDT 642.60 486.90 7,900
4/24/2017 5 AM CDT 642.85 486.85 7,840
4/24/2017 6 AM CDT 643.08 486.88 7,840
4/24/2017 7 AM CDT 643.33 486.83 10,940
4/24/2017 8 AM CDT 643.55 488.25 11,120
4/24/2017 9 AM CDT 643.75 488.65 11,160
4/24/2017 10 AM CDT 643.95 488.85 11,060
4/24/2017 11 AM CDT 644.14 489.04 11,160
4/24/2017 12 PM CDT 644.31 489.11 10,960
4/24/2017 1 PM CDT 644.48 489.18 11,120
4/24/2017 2 PM CDT 644.64 489.24 11,120
4/24/2017 3 PM CDT 644.80 489.30 11,120
4/24/2017 4 PM CDT 644.94 489.24 11,130
4/24/2017 5 PM CDT 645.04 489.24 11,070
4/24/2017 6 PM CDT 645.14 489.34 11,070
4/24/2017 7 PM CDT 645.27 489.27 11,070
4/24/2017 8 PM CDT 645.38 489.28 11,070
4/24/2017 9 PM CDT 645.47 489.27 11,070
4/24/2017 10 PM CDT 645.57 489.17 11,030
4/24/2017 11 PM CDT 645.68 489.18 11,040
4/25/2017 12 AM CDT 645.79 489.19 11,040
4/25/2017 1 AM CDT 645.86 489.16 11,040
4/25/2017 2 AM CDT 645.95 489.15 10,780
4/25/2017 3 AM CDT 646.04 489.14 10,880
4/25/2017 4 AM CDT 646.12 489.12 10,880
4/25/2017 5 AM CDT 646.20 489.10 10,680
4/25/2017 6 AM CDT 646.28 489.08 10,680
4/25/2017 7 AM CDT 646.35 489.05 10,540
4/25/2017 8 AM CDT 646.41 489.01 10,640
4/25/2017 9 AM CDT 646.47 489.07 10,740
4/25/2017 10 AM CDT 646.54 489.04 10,750
4/25/2017 11 AM CDT 646.58 491.28 14,040
4/25/2017 12 PM CDT 646.58 491.28 15,750
4/25/2017 1 PM CDT 646.57 491.57 15,790
4/25/2017 2 PM CDT 646.61 491.81 15,890
4/25/2017 3 PM CDT 646.62 492.02 15,750
4/25/2017 4 PM CDT 646.62 492.22 16,025

Elevations are in feet above sea level. Discharges are in cubic feet per second and are reported at the end of the hour.